Hlavní strana
METAR-TAF:

METAR-TAF

Letiště :

Rimini, Itálie

zeměpisná šířka: 44-02N, zeměpisná délka: 012-37E, výška: 12 m

Aktuální stav počasí

Zpráva byla vytvořena před 39 minutami, v 10:20 UTC
Severoseverozápadní vítr 10 kt
Teplota 29°C
Vlhkost vzduchu 66%
Tlak 1015 hPa
Viditelnost 10 km a více
Skoro jasno ve výšce 1500 ft

METAR: LIPR 201020Z 33010KT 9999 FEW015 29/22 Q1015

Čas: 12:59 (10:59 UTC)

Předpověď počasí

Zpráva byla vytvořena před 2 hodinami a 59 minutami, v 08:00 UTC
Předpověď platná od 20 v 09 UTC do 20 v 18 UTC
Západní vítr 10 kt
Viditelnost 10 km a více
Žádná oblačnost pod 1500 m, nevyskytují se cumulonimby.
Změna
od 20 v 10 UTC do 20 v 12 UTC
Severní vítr 12 kt

TAF: LIPR 200800Z 2009/2018 28010KT CAVOK BECMG 2010/2012 01012KT

Stav a předpovědi počasí z více než 4 000 letišť (zprávy METAR a TAF).

Červené a žluté tečky na mapě představují dostupné meteorologické stanice.

Když kurzor umístíte na tečku, zobrazí se název stanice.

Pak kliknutím zobrazíte stav a předpověď počasí.

Chcete-li změnit mapu, kliknutím na zelené tlačítko se znaménkem +mapu přiblížíte, kliknutím na zelené tlačítko se znaménkem – mapu oddálíte a kliknutím na zelené šipky přejdete na sousední mapy.


METAR-TAF: